createdAt,value
2022-12-04T00:00:27.427Z,5.63
2022-12-04T00:03:31.579Z,5.66
2022-12-04T00:06:35.654Z,5.69
2022-12-04T00:09:39.671Z,5.72
2022-12-04T00:12:43.693Z,5.74
2022-12-04T00:15:48.003Z,5.76
2022-12-04T00:18:52.016Z,5.78
2022-12-04T00:21:56.027Z,5.80
2022-12-04T00:25:00.042Z,5.82
2022-12-04T00:28:03.999Z,5.82
2022-12-04T00:31:08.627Z,5.84
2022-12-04T00:34:13.002Z,5.83
2022-12-04T00:37:17.016Z,5.84
2022-12-04T00:40:21.079Z,5.84
2022-12-04T00:43:25.288Z,5.82
2022-12-04T00:46:29.900Z,5.83
2022-12-04T00:49:33.991Z,5.83
2022-12-04T00:52:38.004Z,5.84
2022-12-04T00:55:42.427Z,5.85
2022-12-04T00:58:46.935Z,5.86
2022-12-04T01:01:50.864Z,5.86
2022-12-04T01:04:54.779Z,5.86
2022-12-04T01:07:58.959Z,5.79
2022-12-04T01:11:06.186Z,5.72
2022-12-04T01:14:10.193Z,5.71
2022-12-04T01:17:14.221Z,5.72
2022-12-04T01:20:18.644Z,5.69
2022-12-04T01:23:22.565Z,5.65
2022-12-04T01:26:27.388Z,5.59
2022-12-04T01:29:31.300Z,5.52
2022-12-04T01:32:35.230Z,5.46
2022-12-04T01:35:39.310Z,5.40
2022-12-04T01:38:43.248Z,5.38
2022-12-04T01:41:47.440Z,5.36
2022-12-04T01:45:04.969Z,5.34
2022-12-04T01:48:11.850Z,5.33
2022-12-04T01:51:17.962Z,5.32
2022-12-04T01:54:28.870Z,5.34
2022-12-04T01:57:33.775Z,5.34
2022-12-04T02:00:37.837Z,5.35
2022-12-04T02:03:41.853Z,5.35
2022-12-04T02:06:45.863Z,5.32
2022-12-04T02:09:56.129Z,5.23
2022-12-04T02:13:05.707Z,5.17
2022-12-04T02:16:14.528Z,5.09
2022-12-04T02:19:34.171Z,5.03
2022-12-04T02:22:47.855Z,4.99
2022-12-04T02:26:00.695Z,4.99
2022-12-04T02:29:08.971Z,5.01
2022-12-04T02:32:20.219Z,5.03
2022-12-04T02:35:28.236Z,5.01
2022-12-04T02:38:34.705Z,4.95
2022-12-04T02:41:42.303Z,4.88
2022-12-04T02:44:48.583Z,4.87
2022-12-04T02:47:53.552Z,4.88
2022-12-04T02:50:59.362Z,4.91
2022-12-04T02:54:05.559Z,4.95
2022-12-04T02:57:13.099Z,4.93
2022-12-04T03:00:18.696Z,4.86
2022-12-04T03:03:24.386Z,4.83
2022-12-04T03:06:30.308Z,4.81
2022-12-04T03:09:37.059Z,4.84
2022-12-04T03:12:43.683Z,4.87
2022-12-04T03:15:49.426Z,4.89
2022-12-04T03:18:56.315Z,4.93
2022-12-04T03:22:02.330Z,4.98
2022-12-04T03:25:07.612Z,5.03
2022-12-04T03:28:15.169Z,5.06
2022-12-04T03:31:23.471Z,5.07
2022-12-04T03:34:29.495Z,5.10
2022-12-04T03:37:36.526Z,5.11
2022-12-04T03:40:42.997Z,5.14
2022-12-04T03:43:50.352Z,5.13
2022-12-04T03:46:56.783Z,5.10
2022-12-04T03:50:02.782Z,5.08
2022-12-04T03:53:10.934Z,5.08
2022-12-04T03:56:17.026Z,5.08
2022-12-04T03:59:24.588Z,5.07
2022-12-04T04:02:32.439Z,5.09
2022-12-04T04:05:38.527Z,5.12
2022-12-04T04:08:45.947Z,5.14
2022-12-04T04:11:50.819Z,5.18
2022-12-04T04:15:14.760Z,5.22
2022-12-04T04:18:36.498Z,5.25
2022-12-04T04:21:59.961Z,5.26
2022-12-04T04:25:06.262Z,5.27
2022-12-04T04:28:23.756Z,5.25
2022-12-04T04:31:35.589Z,5.26
2022-12-04T04:34:42.534Z,5.25
2022-12-04T04:37:52.997Z,5.26
2022-12-04T04:40:59.831Z,5.27
2022-12-04T04:44:10.345Z,5.27
2022-12-04T04:47:17.535Z,5.28
2022-12-04T04:50:22.790Z,5.30
2022-12-04T04:53:30.367Z,5.33
2022-12-04T04:56:40.526Z,5.36
2022-12-04T04:59:44.540Z,5.37
2022-12-04T05:02:50.523Z,5.38
2022-12-04T05:05:54.704Z,5.37
2022-12-04T05:08:58.665Z,5.36
2022-12-04T05:12:02.561Z,5.35
2022-12-04T05:15:07.640Z,5.34
2022-12-04T05:18:11.591Z,5.34
2022-12-04T05:21:17.345Z,5.33
2022-12-04T05:24:21.358Z,5.34
2022-12-04T05:27:25.781Z,5.34
2022-12-04T05:30:29.793Z,5.34
2022-12-04T05:33:33.705Z,5.33
2022-12-04T05:36:37.683Z,5.32
2022-12-04T05:39:41.656Z,5.28
2022-12-04T05:42:45.642Z,5.24
2022-12-04T05:45:49.555Z,5.21
2022-12-04T05:48:53.479Z,5.20
2022-12-04T05:51:57.479Z,5.21
2022-12-04T05:55:01.490Z,5.20
2022-12-04T05:58:05.608Z,5.17
2022-12-04T06:01:13.478Z,5.15
2022-12-04T06:04:17.627Z,5.13
2022-12-04T06:07:21.568Z,5.13
2022-12-04T06:10:25.493Z,5.14
2022-12-04T06:13:29.463Z,5.16
2022-12-04T06:16:35.207Z,5.17
2022-12-04T06:19:40.460Z,5.17
2022-12-04T06:22:44.472Z,5.18
2022-12-04T06:25:48.486Z,5.19
2022-12-04T06:28:54.176Z,5.18
2022-12-04T06:31:58.520Z,5.20
2022-12-04T06:35:03.107Z,5.20
2022-12-04T06:38:08.224Z,5.23
2022-12-04T06:41:13.469Z,5.24
2022-12-04T06:44:17.628Z,5.27
2022-12-04T06:47:21.535Z,5.28
2022-12-04T06:50:25.508Z,5.29
2022-12-04T06:53:30.791Z,5.30
2022-12-04T06:56:34.996Z,5.32
2022-12-04T06:59:39.326Z,5.33
2022-12-04T07:02:43.258Z,5.34
2022-12-04T07:05:47.311Z,5.34
2022-12-04T07:08:52.703Z,5.33
2022-12-04T07:11:56.672Z,5.34
2022-12-04T07:15:00.633Z,5.35
2022-12-04T07:18:05.212Z,5.34
2022-12-04T07:21:10.391Z,5.32
2022-12-04T07:24:16.039Z,5.33
2022-12-04T07:27:19.973Z,5.35
2022-12-04T07:30:24.353Z,5.39
2022-12-04T07:33:28.350Z,5.39
2022-12-04T07:36:32.291Z,5.41
2022-12-04T07:39:36.216Z,5.44
2022-12-04T07:42:40.184Z,5.46
2022-12-04T07:45:44.245Z,5.45
2022-12-04T07:48:48.316Z,5.47
2022-12-04T07:51:52.258Z,5.49
2022-12-04T07:54:56.238Z,5.50
2022-12-04T07:58:00.146Z,5.49
2022-12-04T08:01:11.478Z,5.50
2022-12-04T08:04:15.491Z,5.54
2022-12-04T08:07:19.601Z,5.57
2022-12-04T08:10:23.533Z,5.61
2022-12-04T08:13:27.413Z,5.63
2022-12-04T08:16:32.732Z,5.63
2022-12-04T08:19:36.764Z,5.64
2022-12-04T08:22:40.695Z,5.61
2022-12-04T08:25:44.672Z,5.59
2022-12-04T08:28:49.092Z,5.60
2022-12-04T08:31:53.367Z,5.61
2022-12-04T08:34:57.314Z,5.65
2022-12-04T08:38:01.237Z,5.67
2022-12-04T08:41:06.380Z,5.68
2022-12-04T08:44:10.408Z,5.68
2022-12-04T08:47:15.057Z,5.69
2022-12-04T08:50:18.981Z,5.73
2022-12-04T08:53:23.411Z,5.78
2022-12-04T08:56:28.076Z,5.81
2022-12-04T08:59:32.090Z,5.83
2022-12-04T09:02:36.131Z,5.84
2022-12-04T09:05:40.116Z,5.87
2022-12-04T09:08:44.285Z,5.89
2022-12-04T09:11:48.452Z,5.93
2022-12-04T09:14:52.569Z,5.97
2022-12-04T09:17:56.791Z,6.03
2022-12-04T09:21:01.946Z,6.09
2022-12-04T09:24:06.168Z,6.13
2022-12-04T09:27:14.730Z,6.17
2022-12-04T09:30:19.494Z,6.21
2022-12-04T09:33:23.813Z,6.24
2022-12-04T09:36:27.888Z,6.24
2022-12-04T09:39:32.047Z,6.27
2022-12-04T09:42:44.194Z,6.30
2022-12-04T09:45:51.723Z,6.34
2022-12-04T09:48:58.182Z,6.39
2022-12-04T09:52:32.005Z,6.43
2022-12-04T09:55:42.494Z,6.46
2022-12-04T09:58:51.910Z,6.50
2022-12-04T10:02:03.614Z,6.55
2022-12-04T10:05:20.252Z,6.60
2022-12-04T10:08:30.084Z,6.65
2022-12-04T10:11:47.380Z,6.70
2022-12-04T10:15:05.544Z,6.73
2022-12-04T10:18:25.543Z,6.77
2022-12-04T10:21:43.691Z,6.82
2022-12-04T10:24:53.127Z,6.85
2022-12-04T10:28:03.998Z,6.88
2022-12-04T10:31:14.967Z,6.87
2022-12-04T10:34:24.804Z,6.87
2022-12-04T10:37:31.206Z,6.89
2022-12-04T10:40:38.940Z,6.91
2022-12-04T10:43:46.908Z,6.92
2022-12-04T10:46:54.879Z,6.98
2022-12-04T10:50:04.249Z,7.01
2022-12-04T10:53:13.849Z,7.03
2022-12-04T10:56:22.078Z,7.07
2022-12-04T10:59:29.785Z,7.10
2022-12-04T11:02:39.004Z,7.16
2022-12-04T11:05:55.486Z,7.19
2022-12-04T11:09:02.910Z,7.24
2022-12-04T11:12:18.397Z,7.29
2022-12-04T11:15:24.623Z,7.33
2022-12-04T11:18:33.844Z,7.35
2022-12-04T11:21:41.159Z,7.37
2022-12-04T11:24:54.239Z,7.37
2022-12-04T11:28:03.626Z,7.36
2022-12-04T11:31:12.355Z,7.38
2022-12-04T11:34:22.971Z,7.40
2022-12-04T11:37:33.800Z,7.40
2022-12-04T11:57:55.917Z,6.90
2022-12-04T12:01:19.695Z,6.93
2022-12-04T12:04:39.476Z,6.95
2022-12-04T12:08:01.889Z,6.98
2022-12-04T12:11:18.940Z,7.04
2022-12-04T12:14:26.674Z,7.10
2022-12-04T12:17:39.789Z,7.11
2022-12-04T12:20:57.716Z,7.17
2022-12-04T12:24:26.173Z,7.21
2022-12-04T12:27:44.852Z,7.25
2022-12-04T12:31:07.131Z,7.29
2022-12-04T12:34:16.699Z,7.31
2022-12-04T12:37:29.146Z,7.34
2022-12-04T12:40:41.185Z,7.39
2022-12-04T12:43:51.772Z,7.43
2022-12-04T12:47:03.309Z,7.46
2022-12-04T12:50:16.559Z,7.49
2022-12-04T12:53:28.024Z,7.50
2022-12-04T12:56:44.780Z,7.53
2022-12-04T12:59:58.608Z,7.55
2022-12-04T13:03:08.985Z,7.56
2022-12-04T13:06:19.427Z,7.56
2022-12-04T13:09:30.018Z,7.56
2022-12-04T13:12:47.028Z,7.56
2022-12-04T13:15:58.023Z,7.54
2022-12-04T13:19:13.650Z,7.53
2022-12-04T13:22:28.463Z,7.52
2022-12-04T13:25:49.232Z,7.48
2022-12-04T13:29:02.825Z,7.47
2022-12-04T13:32:27.399Z,7.47
2022-12-04T13:35:50.106Z,7.46
2022-12-04T13:39:21.974Z,7.42
2022-12-04T13:42:30.139Z,7.39
2022-12-04T13:45:36.578Z,7.38
2022-12-04T13:48:43.958Z,7.35
2022-12-04T13:51:50.874Z,7.32
2022-12-04T13:55:01.456Z,7.29
2022-12-04T13:58:30.290Z,7.24
2022-12-04T14:01:42.151Z,7.19
2022-12-04T14:04:54.881Z,7.14
2022-12-04T14:08:08.274Z,7.10
2022-12-04T14:11:18.394Z,7.07
2022-12-04T14:14:31.009Z,7.02
2022-12-04T14:17:38.738Z,6.97
2022-12-04T14:20:45.786Z,6.94
2022-12-04T14:23:52.462Z,6.91
2022-12-04T14:27:11.582Z,6.88
2022-12-04T14:30:23.290Z,6.86
2022-12-04T14:33:30.862Z,6.83
2022-12-04T14:36:42.832Z,6.80
2022-12-04T14:39:50.218Z,6.77
2022-12-04T14:42:56.909Z,6.75
2022-12-04T14:46:08.406Z,6.74
2022-12-04T14:49:29.340Z,6.72
2022-12-04T14:52:44.108Z,6.71
2022-12-04T14:56:04.633Z,6.69
2022-12-04T14:59:19.424Z,6.68
2022-12-04T15:02:34.749Z,6.67
2022-12-04T15:05:40.227Z,6.65
2022-12-04T15:08:53.485Z,6.62
2022-12-04T15:12:19.304Z,6.34
2022-12-04T15:15:27.912Z,5.81
2022-12-04T15:18:39.296Z,5.47
2022-12-04T15:21:45.899Z,5.35
2022-12-04T15:24:51.845Z,5.57
2022-12-04T15:28:06.748Z,5.76
2022-12-04T15:31:18.910Z,5.87
2022-12-04T15:34:31.596Z,5.95
2022-12-04T15:37:38.242Z,5.99
2022-12-04T15:40:52.974Z,6.02
2022-12-04T15:43:58.627Z,6.07
2022-12-04T15:47:17.791Z,6.11
2022-12-04T15:50:27.171Z,6.14
2022-12-04T15:53:37.231Z,6.14
2022-12-04T15:56:42.934Z,6.16
2022-12-04T15:59:53.727Z,6.17
2022-12-04T16:03:00.331Z,6.17
2022-12-04T16:06:18.328Z,6.17
2022-12-04T16:09:26.057Z,6.17
2022-12-04T16:12:33.320Z,6.16
2022-12-04T16:15:41.616Z,6.17
2022-12-04T16:18:48.634Z,6.15
2022-12-04T16:21:54.263Z,6.14
2022-12-04T16:25:00.087Z,6.12
2022-12-04T16:28:06.286Z,6.11
2022-12-04T16:31:14.014Z,6.09
2022-12-04T16:34:19.631Z,6.10
2022-12-04T16:37:25.929Z,6.12
2022-12-04T16:40:29.862Z,6.12
2022-12-04T16:43:35.465Z,6.07
2022-12-04T16:46:41.192Z,6.06
2022-12-04T16:49:49.429Z,6.04
2022-12-04T16:52:55.607Z,6.01
2022-12-04T16:56:01.041Z,5.98
2022-12-04T16:59:11.574Z,5.95
2022-12-04T17:02:23.327Z,5.93
2022-12-04T17:05:30.283Z,5.93
2022-12-04T17:08:35.732Z,5.91
2022-12-04T17:11:42.033Z,5.88
2022-12-04T17:14:46.214Z,5.86
2022-12-04T17:17:52.173Z,5.85
2022-12-04T17:20:58.749Z,5.87
2022-12-04T17:24:04.619Z,5.85
2022-12-04T17:27:14.356Z,5.82
2022-12-04T17:30:20.253Z,5.77
2022-12-04T17:33:26.203Z,5.71
2022-12-04T17:36:31.817Z,5.68
2022-12-04T17:39:37.571Z,5.66
2022-12-04T17:42:43.653Z,5.65
2022-12-04T17:45:49.100Z,5.65
2022-12-04T17:48:56.544Z,5.63
2022-12-04T17:52:02.288Z,5.61
2022-12-04T17:55:09.482Z,5.61
2022-12-04T17:58:14.963Z,5.59
2022-12-04T18:01:23.221Z,5.57
2022-12-04T18:04:28.931Z,5.56
2022-12-04T18:07:34.718Z,5.56
2022-12-04T18:10:41.584Z,5.57
2022-12-04T18:13:47.004Z,5.58
2022-12-04T18:16:54.646Z,5.60
2022-12-04T18:20:04.478Z,5.59
2022-12-04T18:23:10.723Z,5.57
2022-12-04T18:26:19.140Z,5.58
2022-12-04T18:29:27.115Z,5.59
2022-12-04T18:32:33.004Z,5.61
2022-12-04T18:35:38.501Z,5.61
2022-12-04T18:38:44.409Z,5.59
2022-12-04T18:41:50.828Z,5.61
2022-12-04T18:44:56.839Z,5.62
2022-12-04T18:48:02.248Z,5.63
2022-12-04T18:51:21.945Z,5.63
2022-12-04T18:54:27.825Z,5.64
2022-12-04T18:57:36.038Z,5.64
2022-12-04T19:00:42.033Z,5.64
2022-12-04T19:03:48.662Z,5.67
2022-12-04T19:06:56.069Z,5.68
2022-12-04T19:10:10.765Z,5.71
2022-12-04T19:13:21.630Z,5.73
2022-12-04T19:16:28.654Z,5.76
2022-12-04T19:19:34.616Z,5.78
2022-12-04T19:22:43.263Z,5.80
2022-12-04T19:25:57.241Z,5.82
2022-12-04T19:29:03.895Z,5.83
2022-12-04T19:32:10.991Z,5.84
2022-12-04T19:35:16.796Z,5.86
2022-12-04T19:38:22.664Z,5.87
2022-12-04T19:41:30.602Z,5.88
2022-12-04T19:44:53.265Z,5.90
2022-12-04T19:47:58.890Z,5.91
2022-12-04T19:51:09.304Z,5.93
2022-12-04T19:54:16.350Z,5.95
2022-12-04T19:57:22.738Z,5.97
2022-12-04T20:00:28.459Z,5.98
2022-12-04T20:03:35.693Z,5.96
2022-12-04T20:06:43.345Z,5.93
2022-12-04T20:09:52.640Z,5.93
2022-12-04T20:13:00.647Z,5.93
2022-12-04T20:16:12.585Z,5.95
2022-12-04T20:19:20.830Z,5.96
2022-12-04T20:22:26.559Z,5.97
2022-12-04T20:25:32.107Z,5.99
2022-12-04T20:28:38.729Z,6.00
2022-12-04T20:31:47.267Z,5.99
2022-12-04T20:34:53.054Z,6.00
2022-12-04T20:37:58.604Z,6.01
2022-12-04T20:41:06.172Z,6.02
2022-12-04T20:44:15.435Z,6.01
2022-12-04T20:47:21.309Z,5.97
2022-12-04T20:50:28.516Z,5.91
2022-12-04T20:53:34.030Z,5.84
2022-12-04T20:56:40.302Z,5.76
2022-12-04T20:59:45.772Z,5.67
2022-12-04T21:02:51.372Z,5.60
2022-12-04T21:05:56.867Z,5.50
2022-12-04T21:09:05.987Z,5.46
2022-12-04T21:12:25.901Z,5.46
2022-12-04T21:15:48.858Z,5.49
2022-12-04T21:18:54.284Z,5.51
2022-12-04T21:21:59.961Z,5.50
2022-12-04T21:25:08.646Z,5.49
2022-12-04T21:28:14.187Z,5.47
2022-12-04T21:31:19.708Z,5.41
2022-12-04T21:34:25.336Z,5.37
2022-12-04T21:37:30.763Z,5.36
2022-12-04T21:40:42.133Z,5.36
2022-12-04T21:43:48.180Z,5.39
2022-12-04T21:46:53.772Z,5.42
2022-12-04T21:49:59.502Z,5.46
2022-12-04T21:53:05.214Z,5.45
2022-12-04T21:56:11.608Z,5.39
2022-12-04T21:59:15.825Z,5.35
2022-12-04T22:02:21.560Z,5.29
2022-12-04T22:05:27.231Z,5.30
2022-12-04T22:08:35.592Z,5.30
2022-12-04T22:11:42.477Z,5.30
2022-12-04T22:14:47.974Z,5.28
2022-12-04T22:17:53.880Z,5.27
2022-12-04T22:20:59.379Z,5.27
2022-12-04T22:24:06.151Z,5.31
2022-12-04T22:27:15.093Z,5.34
2022-12-04T22:30:20.638Z,5.35
2022-12-04T22:33:26.288Z,5.35
2022-12-04T22:36:33.854Z,5.36
2022-12-04T22:39:39.332Z,5.37
2022-12-04T22:42:44.983Z,5.36
2022-12-04T22:45:51.559Z,5.32
2022-12-04T22:48:57.251Z,5.24
2022-12-04T22:52:02.683Z,5.14
2022-12-04T22:55:09.561Z,5.06
2022-12-04T22:58:14.988Z,4.99
2022-12-04T23:01:22.972Z,4.98
2022-12-04T23:04:29.419Z,4.96
2022-12-04T23:07:35.044Z,4.97
2022-12-04T23:10:41.117Z,4.96
2022-12-04T23:13:50.914Z,4.99
2022-12-04T23:16:56.801Z,5.04
2022-12-04T23:20:02.531Z,5.12
2022-12-04T23:23:08.081Z,5.19
2022-12-04T23:26:16.288Z,5.25
2022-12-04T23:29:52.663Z,5.30
2022-12-04T23:32:47.285Z,5.37
2022-12-04T23:35:55.777Z,5.42
2022-12-04T23:39:01.428Z,5.45
2022-12-04T23:42:07.133Z,5.48
2022-12-04T23:45:13.464Z,5.51
2022-12-04T23:48:17.460Z,5.54
2022-12-04T23:51:22.963Z,5.54
2022-12-04T23:54:30.403Z,5.56
2022-12-04T23:57:35.952Z,5.56
